Alkin Kalkavan — TCOL6 — position and weather

sailwx.info

Track history (hours):
 
Tides and Currents Weather Stations Pressure Air Temp Water Temp Dewpoint Dewpoint Depression Visibility Wind Speed Wind Dir Waves Ship Positions

Alkin Kalkavan

Last reported at 2015-Jul-28 17:31 UTC. Time now 2015-Jul-28 17:46 UTC.
Position N 35°02' E 030°45'.

Length 150 m; draft 6.4 m.

Type: Ship (hazmat cat A). MMSI: 271000905.

Date/timePositionNaut miles runAvg speedWind from/ knotsBaromVisibWave heightAir tempDewpointWater temp
2015-Jul-28 17:31N 35°02' E 030°45'4515.0
2015-Jul-28 14:30N 34°35' E 031°30'1414.9
2015-Jul-28 13:33N 34°27' E 031°44'1514.7
2015-Jul-28 12:34N 34°18' E 031°58'1514.5
2015-Jul-28 11:33N 34°10' E 032°13'1616.0
2015-Jul-28 10:33N 34°00' E 032°28'1614.7
2015-Jul-28 09:27N 33°51' E 032°43'1415.0
2015-Jul-28 08:33N 33°43' E 032°57'1715.2
2015-Jul-28 07:26N 33°33' E 033°13'1315.2
2015-Jul-28 06:34N 33°25' E 033°26'1515.3
2015-Jul-28 05:33N 33°16' E 033°41'1615.2
2015-Jul-28 04:30N 33°06' E 033°56'1314.3
2015-Jul-28 03:34N 33°01' E 034°11'1615.0
2015-Jul-28 02:29N 32°58' E 034°30'1415.5
2015-Jul-28 01:33N 32°55' E 034°47'1312.5
2015-Jul-28 00:31N 32°49' E 035°01'0 0.0
2015-Jul-27 19:26N 32°49' E 035°01'0 0.0
2015-Jul-27 18:12N 32°49' E 035°01'1 1.9
2015-Jul-27 17:33N 32°50' E 035°01'4 4.4
2015-Jul-27 16:34N 32°52' E 034°56'10 9.6
2015-Jul-27 15:33N 32°45' E 034°48'1515.2
2015-Jul-27 14:33N 32°31' E 034°43'1515.2
2015-Jul-27 13:33N 32°16' E 034°38'26 1.2
2015-Jul-26 15:30N 31°50' E 034°39'13 2.3
2015-Jul-26 10:04N 31°55' E 034°25'815.2
2015-Jul-26 09:33N 31°58' E 034°17'1313.4
2015-Jul-26 08:33N 32°11' E 034°14'4815.1
2015-Jul-26 05:21N 32°59' E 034°21'1114.6
2015-Jul-26 04:33N 33°11' E 034°22'3014.6
2015-Jul-26 02:29N 33°41' E 034°26'1414.4
2015-Jul-26 01:33N 33°54' E 034°27'10514.6
2015-Jul-25 18:19N 35°39' E 034°40'69 5.9
2015-Jul-25 06:33N 36°48' E 034°39'0 0.0
2015-Jul-25 05:21N 36°48' E 034°39'23 4.4
2015-Jul-25 00:13N 36°26' E 034°41'2815.3
2015-Jul-24 22:24N 35°58' E 034°41'60 3.0
2015-Jul-24 02:32N 35°05' E 034°03'1312.9
2015-Jul-24 01:33N 34°53' E 034°06'1615.1
2015-Jul-24 00:28N 34°44' E 033°49'1415.1
2015-Jul-23 23:33N 34°36' E 033°35'1515.0
2015-Jul-23 22:33N 34°28' E 033°20'1414.2
2015-Jul-23 21:33N 34°24' E 033°03'1514.8
2015-Jul-23 20:33N 34°27' E 032°46'1514.9
2015-Jul-23 19:33N 34°31' E 032°28'1514.9
2015-Jul-23 18:33N 34°38' E 032°13'4615.3
2015-Jul-23 15:33N 35°04' E 031°26'4515.1
2015-Jul-23 12:32N 35°30' E 030°40'1515.1
2015-Jul-23 11:33N 35°38' E 030°26'1514.8
2015-Jul-23 10:33N 35°47' E 030°11'2114.4
2015-Jul-23 09:04N 35°59' E 029°49'9914.6
2015-Jul-23 02:16N 36°28' E 027°52'1114.7
2015-Jul-23 01:33N 36°32' E 027°39'1615.1
2015-Jul-23 00:31N 36°39' E 027°22'2311.7
2015-Jul-22 22:31N 36°60' E 027°09'  
2015-Jul-19 00:22N 40°39' E 028°36'1215.3
2015-Jul-18 23:33N 40°41' E 028°52'1514.9
2015-Jul-18 22:34N 40°44' E 029°11'1414.2
2015-Jul-18 21:32N 40°45' E 029°30'  
Track history (hours):
 
Tides and Currents Weather Stations Pressure Air Temp Water Temp Dewpoint Dewpoint Depression Visibility Wind Speed Wind Dir Waves Ship Positions

Alkin Kalkavan

Last reported at 2015-Jul-28 17:31 UTC. Time now 2015-Jul-28 17:46 UTC.
Position N 35°02' E 030°45'.

Length 150 m; draft 6.4 m.

Type: Ship (hazmat cat A). MMSI: 271000905.

Date/timePositionNaut miles runAvg speedWind from/ knotsBaromVisibWave heightAir tempDewpointWater temp
2015-Jul-28 17:31N 35°02' E 030°45'4515.0
2015-Jul-28 14:30N 34°35' E 031°30'1414.9
2015-Jul-28 13:33N 34°27' E 031°44'1514.7
2015-Jul-28 12:34N 34°18' E 031°58'1514.5
2015-Jul-28 11:33N 34°10' E 032°13'1616.0
2015-Jul-28 10:33N 34°00' E 032°28'1614.7
2015-Jul-28 09:27N 33°51' E 032°43'1415.0
2015-Jul-28 08:33N 33°43' E 032°57'1715.2
2015-Jul-28 07:26N 33°33' E 033°13'1315.2
2015-Jul-28 06:34N 33°25' E 033°26'1515.3
2015-Jul-28 05:33N 33°16' E 033°41'1615.2
2015-Jul-28 04:30N 33°06' E 033°56'1314.3
2015-Jul-28 03:34N 33°01' E 034°11'1615.0
2015-Jul-28 02:29N 32°58' E 034°30'1415.5
2015-Jul-28 01:33N 32°55' E 034°47'1312.5
2015-Jul-28 00:31N 32°49' E 035°01'0 0.0
2015-Jul-27 19:26N 32°49' E 035°01'0 0.0
2015-Jul-27 18:12N 32°49' E 035°01'1 1.9
2015-Jul-27 17:33N 32°50' E 035°01'4 4.4
2015-Jul-27 16:34N 32°52' E 034°56'10 9.6
2015-Jul-27 15:33N 32°45' E 034°48'1515.2
2015-Jul-27 14:33N 32°31' E 034°43'1515.2
2015-Jul-27 13:33N 32°16' E 034°38'26 1.2
2015-Jul-26 15:30N 31°50' E 034°39'13 2.3
2015-Jul-26 10:04N 31°55' E 034°25'815.2
2015-Jul-26 09:33N 31°58' E 034°17'1313.4
2015-Jul-26 08:33N 32°11' E 034°14'4815.1
2015-Jul-26 05:21N 32°59' E 034°21'1114.6
2015-Jul-26 04:33N 33°11' E 034°22'3014.6
2015-Jul-26 02:29N 33°41' E 034°26'1414.4
2015-Jul-26 01:33N 33°54' E 034°27'10514.6
2015-Jul-25 18:19N 35°39' E 034°40'69 5.9
2015-Jul-25 06:33N 36°48' E 034°39'0 0.0
2015-Jul-25 05:21N 36°48' E 034°39'23 4.4
2015-Jul-25 00:13N 36°26' E 034°41'2815.3
2015-Jul-24 22:24N 35°58' E 034°41'60 3.0
2015-Jul-24 02:32N 35°05' E 034°03'1312.9
2015-Jul-24 01:33N 34°53' E 034°06'1615.1
2015-Jul-24 00:28N 34°44' E 033°49'1415.1
2015-Jul-23 23:33N 34°36' E 033°35'1515.0
2015-Jul-23 22:33N 34°28' E 033°20'1414.2
2015-Jul-23 21:33N 34°24' E 033°03'1514.8
2015-Jul-23 20:33N 34°27' E 032°46'1514.9
2015-Jul-23 19:33N 34°31' E 032°28'1514.9
2015-Jul-23 18:33N 34°38' E 032°13'4615.3
2015-Jul-23 15:33N 35°04' E 031°26'4515.1
2015-Jul-23 12:32N 35°30' E 030°40'1515.1
2015-Jul-23 11:33N 35°38' E 030°26'1514.8
2015-Jul-23 10:33N 35°47' E 030°11'2114.4
2015-Jul-23 09:04N 35°59' E 029°49'9914.6
2015-Jul-23 02:16N 36°28' E 027°52'1114.7
2015-Jul-23 01:33N 36°32' E 027°39'1615.1
2015-Jul-23 00:31N 36°39' E 027°22'2311.7
2015-Jul-22 22:31N 36°60' E 027°09'  
2015-Jul-19 00:22N 40°39' E 028°36'1215.3
2015-Jul-18 23:33N 40°41' E 028°52'1514.9
2015-Jul-18 22:34N 40°44' E 029°11'1414.2
2015-Jul-18 21:32N 40°45' E 029°30'  

Dump ship's entire track history